sensor_id;sensor_type;location;lat;lon;timestamp;P1;durP1;ratioP1;P2;durP2;ratioP2
19869;SDS011;10097;50.862;4.696;2022-12-18T00:00:45;38.13;;;15.13;;
19869;SDS011;10097;50.862;4.696;2022-12-18T00:03:14;32.77;;;14.43;;
19869;SDS011;10097;50.862;4.696;2022-12-18T00:05:50;35.97;;;15.00;;
19869;SDS011;10097;50.862;4.696;2022-12-18T00:08:17;38.63;;;15.47;;
19869;SDS011;10097;50.862;4.696;2022-12-18T00:10:45;38.80;;;16.10;;
19869;SDS011;10097;50.862;4.696;2022-12-18T00:13:11;43.13;;;16.73;;
19869;SDS011;10097;50.862;4.696;2022-12-18T00:15:37;36.83;;;15.60;;
19869;SDS011;10097;50.862;4.696;2022-12-18T00:18:04;36.67;;;15.73;;
19869;SDS011;10097;50.862;4.696;2022-12-18T00:20:30;37.27;;;14.83;;
19869;SDS011;10097;50.862;4.696;2022-12-18T00:22:56;37.77;;;15.90;;
19869;SDS011;10097;50.862;4.696;2022-12-18T00:25:22;42.23;;;15.77;;
19869;SDS011;10097;50.862;4.696;2022-12-18T00:27:47;34.20;;;14.47;;
19869;SDS011;10097;50.862;4.696;2022-12-18T00:30:13;37.67;;;15.27;;
19869;SDS011;10097;50.862;4.696;2022-12-18T00:32:39;38.67;;;14.90;;
19869;SDS011;10097;50.862;4.696;2022-12-18T00:35:05;37.67;;;15.70;;
19869;SDS011;10097;50.862;4.696;2022-12-18T00:37:33;41.10;;;15.83;;
19869;SDS011;10097;50.862;4.696;2022-12-18T00:39:59;38.33;;;15.00;;
19869;SDS011;10097;50.862;4.696;2022-12-18T00:42:25;35.37;;;14.80;;
19869;SDS011;10097;50.862;4.696;2022-12-18T00:45:09;37.83;;;15.17;;
19869;SDS011;10097;50.862;4.696;2022-12-18T00:47:35;36.43;;;15.10;;
19869;SDS011;10097;50.862;4.696;2022-12-18T00:50:01;44.53;;;17.47;;
19869;SDS011;10097;50.862;4.696;2022-12-18T00:52:26;40.10;;;16.63;;
19869;SDS011;10097;50.862;4.696;2022-12-18T00:54:52;43.63;;;18.67;;
19869;SDS011;10097;50.862;4.696;2022-12-18T00:57:17;45.40;;;18.23;;
19869;SDS011;10097;50.862;4.696;2022-12-18T00:59:43;44.63;;;17.60;;
19869;SDS011;10097;50.862;4.696;2022-12-18T01:02:09;50.63;;;18.43;;
19869;SDS011;10097;50.862;4.696;2022-12-18T01:04:34;47.07;;;17.37;;
19869;SDS011;10097;50.862;4.696;2022-12-18T01:07:00;44.13;;;17.83;;
19869;SDS011;10097;50.862;4.696;2022-12-18T01:09:25;40.40;;;17.10;;
19869;SDS011;10097;50.862;4.696;2022-12-18T01:11:51;41.93;;;17.60;;
19869;SDS011;10097;50.862;4.696;2022-12-18T01:14:17;43.57;;;16.77;;
19869;SDS011;10097;50.862;4.696;2022-12-18T01:16:43;39.10;;;15.87;;
19869;SDS011;10097;50.862;4.696;2022-12-18T01:19:09;45.57;;;17.33;;
19869;SDS011;10097;50.862;4.696;2022-12-18T01:21:35;38.00;;;16.63;;
19869;SDS011;10097;50.862;4.696;2022-12-18T01:24:01;43.43;;;17.63;;
19869;SDS011;10097;50.862;4.696;2022-12-18T01:26:27;40.17;;;16.60;;
19869;SDS011;10097;50.862;4.696;2022-12-18T01:28:55;45.83;;;17.10;;
19869;SDS011;10097;50.862;4.696;2022-12-18T01:31:22;43.27;;;17.07;;
19869;SDS011;10097;50.862;4.696;2022-12-18T01:33:52;41.80;;;16.37;;
19869;SDS011;10097;50.862;4.696;2022-12-18T01:36:20;38.40;;;16.20;;
19869;SDS011;10097;50.862;4.696;2022-12-18T01:38:46;40.57;;;17.17;;
19869;SDS011;10097;50.862;4.696;2022-12-18T01:41:12;44.40;;;15.73;;
19869;SDS011;10097;50.862;4.696;2022-12-18T01:46:10;39.00;;;15.83;;
19869;SDS011;10097;50.862;4.696;2022-12-18T01:48:36;42.30;;;16.87;;
19869;SDS011;10097;50.862;4.696;2022-12-18T01:51:03;37.67;;;16.50;;
19869;SDS011;10097;50.862;4.696;2022-12-18T01:53:31;39.60;;;16.73;;
19869;SDS011;10097;50.862;4.696;2022-12-18T01:55:57;37.90;;;15.50;;
19869;SDS011;10097;50.862;4.696;2022-12-18T01:58:27;39.40;;;16.00;;
19869;SDS011;10097;50.862;4.696;2022-12-18T02:01:06;37.73;;;14.97;;
19869;SDS011;10097;50.862;4.696;2022-12-18T02:03:32;41.37;;;15.83;;
19869;SDS011;10097;50.862;4.696;2022-12-18T02:06:19;41.90;;;16.33;;
19869;SDS011;10097;50.862;4.696;2022-12-18T02:09:13;39.90;;;15.23;;
19869;SDS011;10097;50.862;4.696;2022-12-18T02:11:50;36.50;;;16.20;;
19869;SDS011;10097;50.862;4.696;2022-12-18T02:14:38;36.77;;;14.67;;
19869;SDS011;10097;50.862;4.696;2022-12-18T02:17:16;36.60;;;16.03;;
19869;SDS011;10097;50.862;4.696;2022-12-18T02:20:01;41.17;;;15.33;;
19869;SDS011;10097;50.862;4.696;2022-12-18T02:22:44;40.00;;;16.60;;
19869;SDS011;10097;50.862;4.696;2022-12-18T02:28:08;39.17;;;14.83;;
19869;SDS011;10097;50.862;4.696;2022-12-18T02:30:37;41.83;;;15.27;;
19869;SDS011;10097;50.862;4.696;2022-12-18T02:33:06;40.77;;;15.63;;
19869;SDS011;10097;50.862;4.696;2022-12-18T02:35:33;37.83;;;15.23;;
19869;SDS011;10097;50.862;4.696;2022-12-18T02:38:01;39.30;;;15.97;;
19869;SDS011;10097;50.862;4.696;2022-12-18T02:40:28;40.43;;;15.30;;
19869;SDS011;10097;50.862;4.696;2022-12-18T02:42:55;37.00;;;15.00;;
19869;SDS011;10097;50.862;4.696;2022-12-18T02:45:26;37.20;;;15.40;;
19869;SDS011;10097;50.862;4.696;2022-12-18T02:47:52;39.17;;;14.30;;
19869;SDS011;10097;50.862;4.696;2022-12-18T02:50:39;31.77;;;13.40;;
19869;SDS011;10097;50.862;4.696;2022-12-18T02:53:14;30.40;;;13.80;;
19869;SDS011;10097;50.862;4.696;2022-12-18T03:01:28;33.30;;;13.90;;
19869;SDS011;10097;50.862;4.696;2022-12-18T03:04:14;41.53;;;15.07;;
19869;SDS011;10097;50.862;4.696;2022-12-18T03:06:47;35.30;;;14.00;;
19869;SDS011;10097;50.862;4.696;2022-12-18T03:09:50;31.63;;;13.67;;
19869;SDS011;10097;50.862;4.696;2022-12-18T03:12:15;38.33;;;13.67;;
19869;SDS011;10097;50.862;4.696;2022-12-18T03:14:53;31.83;;;13.27;;
19869;SDS011;10097;50.862;4.696;2022-12-18T03:17:29;36.40;;;13.50;;
19869;SDS011;10097;50.862;4.696;2022-12-18T03:19:58;31.63;;;13.27;;
19869;SDS011;10097;50.862;4.696;2022-12-18T03:22:30;38.13;;;14.50;;
19869;SDS011;10097;50.862;4.696;2022-12-18T03:24:58;37.70;;;14.53;;
19869;SDS011;10097;50.862;4.696;2022-12-18T03:27:27;35.80;;;12.67;;
19869;SDS011;10097;50.862;4.696;2022-12-18T03:30:06;36.87;;;14.50;;
19869;SDS011;10097;50.862;4.696;2022-12-18T03:35:33;36.37;;;13.40;;
19869;SDS011;10097;50.862;4.696;2022-12-18T03:38:02;37.40;;;14.73;;
19869;SDS011;10097;50.862;4.696;2022-12-18T03:40:34;37.70;;;15.20;;
19869;SDS011;10097;50.862;4.696;2022-12-18T03:43:11;35.43;;;14.17;;
19869;SDS011;10097;50.862;4.696;2022-12-18T03:45:51;30.80;;;13.40;;
19869;SDS011;10097;50.862;4.696;2022-12-18T03:48:26;38.33;;;14.40;;
19869;SDS011;10097;50.862;4.696;2022-12-18T03:51:05;37.10;;;13.83;;
19869;SDS011;10097;50.862;4.696;2022-12-18T03:56:10;38.43;;;14.27;;
19869;SDS011;10097;50.862;4.696;2022-12-18T03:58:38;31.70;;;13.03;;
19869;SDS011;10097;50.862;4.696;2022-12-18T04:01:06;37.17;;;14.13;;
19869;SDS011;10097;50.862;4.696;2022-12-18T04:03:34;27.07;;;12.07;;
19869;SDS011;10097;50.862;4.696;2022-12-18T04:06:01;30.77;;;12.47;;
19869;SDS011;10097;50.862;4.696;2022-12-18T04:08:27;34.30;;;12.80;;
19869;SDS011;10097;50.862;4.696;2022-12-18T04:10:54;33.90;;;13.27;;
19869;SDS011;10097;50.862;4.696;2022-12-18T04:13:23;35.77;;;13.77;;
19869;SDS011;10097;50.862;4.696;2022-12-18T04:15:52;28.37;;;12.30;;
19869;SDS011;10097;50.862;4.696;2022-12-18T04:18:18;39.67;;;14.53;;
19869;SDS011;10097;50.862;4.696;2022-12-18T04:20:44;37.07;;;13.60;;
19869;SDS011;10097;50.862;4.696;2022-12-18T04:23:12;34.73;;;13.50;;
19869;SDS011;10097;50.862;4.696;2022-12-18T04:25:37;33.03;;;12.77;;
19869;SDS011;10097;50.862;4.696;2022-12-18T04:28:03;33.83;;;14.37;;
19869;SDS011;10097;50.862;4.696;2022-12-18T04:30:29;32.90;;;12.67;;
19869;SDS011;10097;50.862;4.696;2022-12-18T04:32:54;29.50;;;12.20;;
19869;SDS011;10097;50.862;4.696;2022-12-18T04:35:20;28.97;;;12.10;;
19869;SDS011;10097;50.862;4.696;2022-12-18T04:37:45;28.50;;;12.70;;
19869;SDS011;10097;50.862;4.696;2022-12-18T04:40:11;34.13;;;13.13;;
19869;SDS011;10097;50.862;4.696;2022-12-18T04:42:38;30.80;;;13.07;;
19869;SDS011;10097;50.862;4.696;2022-12-18T04:45:04;34.47;;;13.03;;
19869;SDS011;10097;50.862;4.696;2022-12-18T04:47:30;26.63;;;11.97;;
19869;SDS011;10097;50.862;4.696;2022-12-18T04:49:56;30.87;;;12.80;;
19869;SDS011;10097;50.862;4.696;2022-12-18T04:52:22;32.27;;;12.60;;
19869;SDS011;10097;50.862;4.696;2022-12-18T04:54:47;28.97;;;11.83;;
19869;SDS011;10097;50.862;4.696;2022-12-18T04:57:13;32.27;;;12.80;;
19869;SDS011;10097;50.862;4.696;2022-12-18T04:59:39;34.13;;;12.60;;
19869;SDS011;10097;50.862;4.696;2022-12-18T05:02:06;28.50;;;11.50;;
19869;SDS011;10097;50.862;4.696;2022-12-18T05:04:32;36.33;;;13.03;;
19869;SDS011;10097;50.862;4.696;2022-12-18T05:07:00;34.33;;;12.80;;
19869;SDS011;10097;50.862;4.696;2022-12-18T05:09:26;27.17;;;11.53;;
19869;SDS011;10097;50.862;4.696;2022-12-18T05:11:51;28.80;;;11.53;;
19869;SDS011;10097;50.862;4.696;2022-12-18T05:14:17;31.20;;;12.57;;
19869;SDS011;10097;50.862;4.696;2022-12-18T05:16:43;26.03;;;11.37;;
19869;SDS011;10097;50.862;4.696;2022-12-18T05:19:09;28.83;;;11.90;;
19869;SDS011;10097;50.862;4.696;2022-12-18T05:21:34;25.33;;;10.80;;
19869;SDS011;10097;50.862;4.696;2022-12-18T05:24:00;33.10;;;12.40;;
19869;SDS011;10097;50.862;4.696;2022-12-18T05:26:26;35.47;;;13.73;;
19869;SDS011;10097;50.862;4.696;2022-12-18T05:28:51;31.27;;;11.47;;
19869;SDS011;10097;50.862;4.696;2022-12-18T05:31:17;28.83;;;12.53;;
19869;SDS011;10097;50.862;4.696;2022-12-18T05:33:46;28.23;;;11.70;;
19869;SDS011;10097;50.862;4.696;2022-12-18T05:36:14;30.43;;;11.13;;
19869;SDS011;10097;50.862;4.696;2022-12-18T05:38:41;29.80;;;12.17;;
19869;SDS011;10097;50.862;4.696;2022-12-18T05:41:07;30.40;;;12.53;;
19869;SDS011;10097;50.862;4.696;2022-12-18T05:43:34;31.17;;;10.13;;
19869;SDS011;10097;50.862;4.696;2022-12-18T05:46:07;29.63;;;11.60;;
19869;SDS011;10097;50.862;4.696;2022-12-18T05:48:36;27.33;;;11.87;;
19869;SDS011;10097;50.862;4.696;2022-12-18T05:51:05;29.10;;;12.23;;
19869;SDS011;10097;50.862;4.696;2022-12-18T05:53:38;24.07;;;10.67;;
19869;SDS011;10097;50.862;4.696;2022-12-18T05:56:05;31.23;;;11.40;;
19869;SDS011;10097;50.862;4.696;2022-12-18T05:58:37;29.90;;;12.33;;
19869;SDS011;10097;50.862;4.696;2022-12-18T06:01:17;26.13;;;11.57;;
19869;SDS011;10097;50.862;4.696;2022-12-18T06:03:44;33.07;;;11.23;;
19869;SDS011;10097;50.862;4.696;2022-12-18T06:06:17;32.30;;;11.80;;
19869;SDS011;10097;50.862;4.696;2022-12-18T06:08:45;27.83;;;11.37;;
19869;SDS011;10097;50.862;4.696;2022-12-18T06:11:11;35.80;;;12.60;;
19869;SDS011;10097;50.862;4.696;2022-12-18T06:13:39;27.43;;;10.27;;
19869;SDS011;10097;50.862;4.696;2022-12-18T06:16:05;29.17;;;11.17;;
19869;SDS011;10097;50.862;4.696;2022-12-18T06:18:31;27.03;;;10.23;;
19869;SDS011;10097;50.862;4.696;2022-12-18T06:20:57;28.60;;;10.87;;
19869;SDS011;10097;50.862;4.696;2022-12-18T06:23:24;28.17;;;10.80;;
19869;SDS011;10097;50.862;4.696;2022-12-18T06:25:50;25.67;;;10.40;;
19869;SDS011;10097;50.862;4.696;2022-12-18T06:28:17;27.43;;;10.90;;
19869;SDS011;10097;50.862;4.696;2022-12-18T06:30:43;28.40;;;11.67;;
19869;SDS011;10097;50.862;4.696;2022-12-18T06:33:11;28.97;;;10.63;;
19869;SDS011;10097;50.862;4.696;2022-12-18T06:35:37;28.70;;;10.63;;
19869;SDS011;10097;50.862;4.696;2022-12-18T06:38:03;25.73;;;10.70;;
19869;SDS011;10097;50.862;4.696;2022-12-18T06:40:29;26.67;;;10.77;;
19869;SDS011;10097;50.862;4.696;2022-12-18T06:42:55;27.10;;;10.43;;
19869;SDS011;10097;50.862;4.696;2022-12-18T06:45:23;24.90;;;10.37;;
19869;SDS011;10097;50.862;4.696;2022-12-18T06:47:49;27.57;;;10.77;;
19869;SDS011;10097;50.862;4.696;2022-12-18T06:50:14;25.70;;;10.50;;
19869;SDS011;10097;50.862;4.696;2022-12-18T06:52:40;27.73;;;11.40;;
19869;SDS011;10097;50.862;4.696;2022-12-18T06:55:07;31.27;;;11.40;;
19869;SDS011;10097;50.862;4.696;2022-12-18T06:57:33;25.33;;;9.83;;
19869;SDS011;10097;50.862;4.696;2022-12-18T06:59:59;25.03;;;10.43;;
19869;SDS011;10097;50.862;4.696;2022-12-18T07:02:25;26.03;;;10.43;;
19869;SDS011;10097;50.862;4.696;2022-12-18T07:04:50;25.93;;;10.80;;
19869;SDS011;10097;50.862;4.696;2022-12-18T07:07:16;28.33;;;10.97;;
19869;SDS011;10097;50.862;4.696;2022-12-18T07:09:42;28.90;;;10.20;;
19869;SDS011;10097;50.862;4.696;2022-12-18T07:12:07;27.73;;;11.37;;
19869;SDS011;10097;50.862;4.696;2022-12-18T07:14:34;26.30;;;10.40;;
19869;SDS011;10097;50.862;4.696;2022-12-18T07:17:00;27.83;;;11.03;;
19869;SDS011;10097;50.862;4.696;2022-12-18T07:19:25;30.73;;;12.10;;
19869;SDS011;10097;50.862;4.696;2022-12-18T07:21:51;27.30;;;11.07;;
19869;SDS011;10097;50.862;4.696;2022-12-18T07:24:17;27.93;;;10.87;;
19869;SDS011;10097;50.862;4.696;2022-12-18T07:26:42;27.30;;;10.70;;
19869;SDS011;10097;50.862;4.696;2022-12-18T07:29:11;31.57;;;11.83;;
19869;SDS011;10097;50.862;4.696;2022-12-18T07:31:36;29.40;;;11.30;;
19869;SDS011;10097;50.862;4.696;2022-12-18T07:34:02;30.00;;;11.27;;
19869;SDS011;10097;50.862;4.696;2022-12-18T07:36:27;26.37;;;10.47;;
19869;SDS011;10097;50.862;4.696;2022-12-18T07:38:53;29.70;;;11.13;;
19869;SDS011;10097;50.862;4.696;2022-12-18T07:41:19;26.97;;;10.80;;
19869;SDS011;10097;50.862;4.696;2022-12-18T07:43:46;33.83;;;12.63;;
19869;SDS011;10097;50.862;4.696;2022-12-18T07:46:13;33.30;;;11.80;;
19869;SDS011;10097;50.862;4.696;2022-12-18T07:48:40;28.10;;;10.60;;
19869;SDS011;10097;50.862;4.696;2022-12-18T07:51:06;27.50;;;11.83;;
19869;SDS011;10097;50.862;4.696;2022-12-18T07:53:32;28.47;;;11.50;;
19869;SDS011;10097;50.862;4.696;2022-12-18T07:56:00;32.83;;;12.17;;
19869;SDS011;10097;50.862;4.696;2022-12-18T07:58:28;28.43;;;11.67;;
19869;SDS011;10097;50.862;4.696;2022-12-18T08:01:01;30.80;;;11.93;;
19869;SDS011;10097;50.862;4.696;2022-12-18T08:03:31;28.47;;;11.70;;
19869;SDS011;10097;50.862;4.696;2022-12-18T08:06:03;28.53;;;11.20;;
19869;SDS011;10097;50.862;4.696;2022-12-18T08:08:31;28.87;;;12.00;;
19869;SDS011;10097;50.862;4.696;2022-12-18T08:10:58;31.20;;;12.10;;
19869;SDS011;10097;50.862;4.696;2022-12-18T08:13:25;33.97;;;12.83;;
19869;SDS011;10097;50.862;4.696;2022-12-18T08:18:27;31.43;;;12.43;;
19869;SDS011;10097;50.862;4.696;2022-12-18T08:20:53;29.67;;;12.03;;
19869;SDS011;10097;50.862;4.696;2022-12-18T08:23:25;28.80;;;12.17;;
19869;SDS011;10097;50.862;4.696;2022-12-18T08:25:54;28.27;;;11.60;;
19869;SDS011;10097;50.862;4.696;2022-12-18T08:28:19;33.73;;;11.47;;
19869;SDS011;10097;50.862;4.696;2022-12-18T08:30:45;34.63;;;12.10;;
19869;SDS011;10097;50.862;4.696;2022-12-18T08:33:11;27.27;;;11.57;;
19869;SDS011;10097;50.862;4.696;2022-12-18T08:35:36;36.67;;;11.73;;
19869;SDS011;10097;50.862;4.696;2022-12-18T08:38:02;35.43;;;12.37;;
19869;SDS011;10097;50.862;4.696;2022-12-18T08:40:28;25.00;;;11.40;;
19869;SDS011;10097;50.862;4.696;2022-12-18T08:42:54;29.73;;;12.00;;
19869;SDS011;10097;50.862;4.696;2022-12-18T08:45:38;27.20;;;10.40;;
19869;SDS011;10097;50.862;4.696;2022-12-18T08:48:04;24.57;;;10.37;;
19869;SDS011;10097;50.862;4.696;2022-12-18T08:50:30;28.63;;;10.70;;
19869;SDS011;10097;50.862;4.696;2022-12-18T08:52:55;23.37;;;9.43;;
19869;SDS011;10097;50.862;4.696;2022-12-18T08:55:21;23.07;;;9.40;;
19869;SDS011;10097;50.862;4.696;2022-12-18T08:57:50;20.33;;;9.40;;
19869;SDS011;10097;50.862;4.696;2022-12-18T09:00:15;23.70;;;10.20;;
19869;SDS011;10097;50.862;4.696;2022-12-18T09:02:41;24.37;;;10.33;;
19869;SDS011;10097;50.862;4.696;2022-12-18T09:05:07;28.07;;;11.70;;
19869;SDS011;10097;50.862;4.696;2022-12-18T09:07:33;32.57;;;13.97;;
19869;SDS011;10097;50.862;4.696;2022-12-18T09:09:58;41.77;;;16.63;;
19869;SDS011;10097;50.862;4.696;2022-12-18T09:12:24;37.83;;;15.50;;
19869;SDS011;10097;50.862;4.696;2022-12-18T09:14:50;39.20;;;15.20;;
19869;SDS011;10097;50.862;4.696;2022-12-18T09:17:15;33.37;;;13.47;;
19869;SDS011;10097;50.862;4.696;2022-12-18T09:19:47;50.50;;;19.90;;
19869;SDS011;10097;50.862;4.696;2022-12-18T09:22:15;40.80;;;15.77;;
19869;SDS011;10097;50.862;4.696;2022-12-18T09:24:41;45.93;;;15.10;;
19869;SDS011;10097;50.862;4.696;2022-12-18T09:27:07;45.27;;;14.03;;
19869;SDS011;10097;50.862;4.696;2022-12-18T09:29:32;31.47;;;12.30;;
19869;SDS011;10097;50.862;4.696;2022-12-18T09:31:58;37.17;;;13.67;;
19869;SDS011;10097;50.862;4.696;2022-12-18T09:34:23;24.70;;;9.77;;
19869;SDS011;10097;50.862;4.696;2022-12-18T09:36:49;26.57;;;10.27;;
19869;SDS011;10097;50.862;4.696;2022-12-18T09:39:15;24.90;;;9.27;;
19869;SDS011;10097;50.862;4.696;2022-12-18T09:41:45;20.90;;;8.73;;
19869;SDS011;10097;50.862;4.696;2022-12-18T09:44:19;26.07;;;9.30;;
19869;SDS011;10097;50.862;4.696;2022-12-18T09:46:48;28.27;;;10.47;;
19869;SDS011;10097;50.862;4.696;2022-12-18T09:49:23;29.17;;;11.03;;
19869;SDS011;10097;50.862;4.696;2022-12-18T09:51:54;27.30;;;10.97;;
19869;SDS011;10097;50.862;4.696;2022-12-18T09:54:22;20.00;;;8.27;;
19869;SDS011;10097;50.862;4.696;2022-12-18T09:57:01;20.13;;;8.67;;
19869;SDS011;10097;50.862;4.696;2022-12-18T09:59:32;20.93;;;8.60;;
19869;SDS011;10097;50.862;4.696;2022-12-18T10:02:35;17.63;;;7.97;;
19869;SDS011;10097;50.862;4.696;2022-12-18T10:05:05;16.90;;;7.70;;
19869;SDS011;10097;50.862;4.696;2022-12-18T10:07:40;17.80;;;7.80;;
19869;SDS011;10097;50.862;4.696;2022-12-18T10:26:47;16.70;;;7.10;;
19869;SDS011;10097;50.862;4.696;2022-12-18T10:29:14;15.57;;;6.80;;
19869;SDS011;10097;50.862;4.696;2022-12-18T10:31:41;15.17;;;6.83;;
19869;SDS011;10097;50.862;4.696;2022-12-18T10:34:10;17.67;;;7.30;;
19869;SDS011;10097;50.862;4.696;2022-12-18T10:36:36;16.33;;;7.40;;
19869;SDS011;10097;50.862;4.696;2022-12-18T10:39:19;16.73;;;7.80;;
19869;SDS011;10097;50.862;4.696;2022-12-18T10:41:51;24.27;;;8.00;;
19869;SDS011;10097;50.862;4.696;2022-12-18T10:44:18;17.37;;;7.07;;
19869;SDS011;10097;50.862;4.696;2022-12-18T10:46:48;15.87;;;7.13;;
19869;SDS011;10097;50.862;4.696;2022-12-18T10:49:19;16.27;;;7.33;;
19869;SDS011;10097;50.862;4.696;2022-12-18T10:52:30;18.03;;;7.47;;
19869;SDS011;10097;50.862;4.696;2022-12-18T10:54:51;19.70;;;7.70;;
19869;SDS011;10097;50.862;4.696;2022-12-18T11:02:54;22.23;;;8.20;;
19869;SDS011;10097;50.862;4.696;2022-12-18T11:05:25;16.30;;;7.53;;
19869;SDS011;10097;50.862;4.696;2022-12-18T11:07:56;15.90;;;7.87;;
19869;SDS011;10097;50.862;4.696;2022-12-18T11:10:25;21.53;;;8.40;;
19869;SDS011;10097;50.862;4.696;2022-12-18T11:15:59;21.10;;;8.57;;
19869;SDS011;10097;50.862;4.696;2022-12-18T11:18:30;21.23;;;9.10;;
19869;SDS011;10097;50.862;4.696;2022-12-18T11:21:07;21.40;;;9.70;;
19869;SDS011;10097;50.862;4.696;2022-12-18T11:23:34;20.03;;;8.83;;
19869;SDS011;10097;50.862;4.696;2022-12-18T11:26:03;18.33;;;8.27;;
19869;SDS011;10097;50.862;4.696;2022-12-18T11:31:23;22.20;;;9.27;;
19869;SDS011;10097;50.862;4.696;2022-12-18T11:36:45;24.27;;;10.17;;
19869;SDS011;10097;50.862;4.696;2022-12-18T11:39:31;19.90;;;9.20;;
19869;SDS011;10097;50.862;4.696;2022-12-18T11:47:47;26.77;;;11.63;;
19869;SDS011;10097;50.862;4.696;2022-12-18T11:53:30;27.97;;;12.40;;
19869;SDS011;10097;50.862;4.696;2022-12-18T11:59:21;25.57;;;10.97;;
19869;SDS011;10097;50.862;4.696;2022-12-18T12:02:04;21.97;;;10.07;;
19869;SDS011;10097;50.862;4.696;2022-12-18T12:07:46;23.00;;;10.07;;
19869;SDS011;10097;50.862;4.696;2022-12-18T12:18:27;18.57;;;8.73;;
19869;SDS011;10097;50.862;4.696;2022-12-18T12:23:37;22.03;;;9.07;;
19869;SDS011;10097;50.862;4.696;2022-12-18T12:37:33;20.13;;;10.50;;
19869;SDS011;10097;50.862;4.696;2022-12-18T12:40:16;20.90;;;10.33;;
19869;SDS011;10097;50.862;4.696;2022-12-18T12:42:57;22.60;;;10.73;;
19869;SDS011;10097;50.862;4.696;2022-12-18T12:48:31;20.03;;;9.30;;
19869;SDS011;10097;50.862;4.696;2022-12-18T12:51:17;20.97;;;9.77;;
19869;SDS011;10097;50.862;4.696;2022-12-18T12:53:48;22.40;;;10.23;;
19869;SDS011;10097;50.862;4.696;2022-12-18T12:56:21;23.30;;;9.70;;
19869;SDS011;10097;50.862;4.696;2022-12-18T13:09:32;22.07;;;10.40;;
19869;SDS011;10097;50.862;4.696;2022-12-18T13:12:12;21.10;;;9.90;;
19869;SDS011;10097;50.862;4.696;2022-12-18T13:15:11;20.83;;;10.47;;
19869;SDS011;10097;50.862;4.696;2022-12-18T13:17:45;20.97;;;9.33;;
19869;SDS011;10097;50.862;4.696;2022-12-18T13:20:12;20.00;;;9.33;;
19869;SDS011;10097;50.862;4.696;2022-12-18T13:30:41;23.53;;;10.03;;
19869;SDS011;10097;50.862;4.696;2022-12-18T13:33:49;22.60;;;10.73;;
19869;SDS011;10097;50.862;4.696;2022-12-18T13:38:47;25.80;;;10.77;;
19869;SDS011;10097;50.862;4.696;2022-12-18T13:41:32;23.63;;;10.03;;
19869;SDS011;10097;50.862;4.696;2022-12-18T13:46:44;23.53;;;10.27;;
19869;SDS011;10097;50.862;4.696;2022-12-18T13:51:38;25.20;;;10.60;;
19869;SDS011;10097;50.862;4.696;2022-12-18T13:54:16;22.30;;;9.93;;
19869;SDS011;10097;50.862;4.696;2022-12-18T13:56:46;24.47;;;11.10;;
19869;SDS011;10097;50.862;4.696;2022-12-18T14:01:58;22.90;;;10.13;;
19869;SDS011;10097;50.862;4.696;2022-12-18T14:07:04;22.63;;;10.27;;
19869;SDS011;10097;50.862;4.696;2022-12-18T14:09:36;26.20;;;10.63;;
19869;SDS011;10097;50.862;4.696;2022-12-18T14:12:06;26.87;;;11.57;;
19869;SDS011;10097;50.862;4.696;2022-12-18T14:14:58;22.60;;;10.47;;
19869;SDS011;10097;50.862;4.696;2022-12-18T14:17:24;27.77;;;11.10;;
19869;SDS011;10097;50.862;4.696;2022-12-18T14:19:50;23.77;;;11.03;;
19869;SDS011;10097;50.862;4.696;2022-12-18T14:22:20;25.23;;;11.73;;
19869;SDS011;10097;50.862;4.696;2022-12-18T14:27:41;22.80;;;10.93;;
19869;SDS011;10097;50.862;4.696;2022-12-18T14:35:33;24.17;;;10.50;;
19869;SDS011;10097;50.862;4.696;2022-12-18T14:40:44;23.00;;;10.60;;
19869;SDS011;10097;50.862;4.696;2022-12-18T14:43:10;25.93;;;11.60;;
19869;SDS011;10097;50.862;4.696;2022-12-18T14:45:37;25.87;;;11.13;;
19869;SDS011;10097;50.862;4.696;2022-12-18T14:48:13;26.53;;;12.27;;
19869;SDS011;10097;50.862;4.696;2022-12-18T14:50:40;22.83;;;10.60;;
19869;SDS011;10097;50.862;4.696;2022-12-18T14:53:15;26.90;;;11.40;;
19869;SDS011;10097;50.862;4.696;2022-12-18T14:55:46;24.00;;;11.30;;
19869;SDS011;10097;50.862;4.696;2022-12-18T14:58:13;25.80;;;11.00;;
19869;SDS011;10097;50.862;4.696;2022-12-18T15:00:41;29.37;;;13.13;;
19869;SDS011;10097;50.862;4.696;2022-12-18T15:03:07;29.97;;;13.73;;
19869;SDS011;10097;50.862;4.696;2022-12-18T15:05:34;31.30;;;13.97;;
19869;SDS011;10097;50.862;4.696;2022-12-18T15:08:00;28.90;;;13.43;;
19869;SDS011;10097;50.862;4.696;2022-12-18T15:10:28;27.63;;;12.70;;
19869;SDS011;10097;50.862;4.696;2022-12-18T15:20:42;28.93;;;12.70;;
19869;SDS011;10097;50.862;4.696;2022-12-18T15:23:15;25.53;;;11.97;;
19869;SDS011;10097;50.862;4.696;2022-12-18T15:25:54;28.43;;;12.60;;
19869;SDS011;10097;50.862;4.696;2022-12-18T15:28:27;28.07;;;12.53;;
19869;SDS011;10097;50.862;4.696;2022-12-18T15:31:03;26.93;;;12.37;;
19869;SDS011;10097;50.862;4.696;2022-12-18T15:33:35;27.07;;;12.70;;
19869;SDS011;10097;50.862;4.696;2022-12-18T15:36:09;32.90;;;13.37;;
19869;SDS011;10097;50.862;4.696;2022-12-18T15:38:36;55.23;;;14.80;;
19869;SDS011;10097;50.862;4.696;2022-12-18T15:41:02;33.67;;;13.37;;
19869;SDS011;10097;50.862;4.696;2022-12-18T15:43:27;33.77;;;13.23;;
19869;SDS011;10097;50.862;4.696;2022-12-18T15:46:00;29.27;;;12.53;;
19869;SDS011;10097;50.862;4.696;2022-12-18T15:48:32;29.53;;;13.67;;
19869;SDS011;10097;50.862;4.696;2022-12-18T15:50:59;34.93;;;14.27;;
19869;SDS011;10097;50.862;4.696;2022-12-18T15:53:27;31.53;;;13.17;;
19869;SDS011;10097;50.862;4.696;2022-12-18T15:55:56;33.13;;;14.83;;
19869;SDS011;10097;50.862;4.696;2022-12-18T15:58:41;37.03;;;15.20;;
19869;SDS011;10097;50.862;4.696;2022-12-18T16:01:07;33.73;;;14.50;;
19869;SDS011;10097;50.862;4.696;2022-12-18T16:03:34;31.83;;;14.87;;
19869;SDS011;10097;50.862;4.696;2022-12-18T16:05:59;30.63;;;15.00;;
19869;SDS011;10097;50.862;4.696;2022-12-18T16:08:27;31.97;;;14.07;;
19869;SDS011;10097;50.862;4.696;2022-12-18T16:10:56;37.13;;;15.63;;
19869;SDS011;10097;50.862;4.696;2022-12-18T16:13:23;38.07;;;15.27;;
19869;SDS011;10097;50.862;4.696;2022-12-18T16:15:49;34.30;;;14.87;;
19869;SDS011;10097;50.862;4.696;2022-12-18T16:18:14;29.50;;;13.40;;
19869;SDS011;10097;50.862;4.696;2022-12-18T16:20:40;34.90;;;14.50;;
19869;SDS011;10097;50.862;4.696;2022-12-18T16:23:06;31.13;;;13.30;;
19869;SDS011;10097;50.862;4.696;2022-12-18T16:25:32;32.27;;;13.63;;
19869;SDS011;10097;50.862;4.696;2022-12-18T16:27:57;32.83;;;13.23;;
19869;SDS011;10097;50.862;4.696;2022-12-18T16:30:24;37.13;;;13.87;;
19869;SDS011;10097;50.862;4.696;2022-12-18T16:32:53;27.40;;;12.43;;
19869;SDS011;10097;50.862;4.696;2022-12-18T16:35:19;30.10;;;13.43;;
19869;SDS011;10097;50.862;4.696;2022-12-18T16:37:45;27.80;;;12.87;;
19869;SDS011;10097;50.862;4.696;2022-12-18T16:40:12;34.80;;;13.27;;
19869;SDS011;10097;50.862;4.696;2022-12-18T16:42:40;36.50;;;13.77;;
19869;SDS011;10097;50.862;4.696;2022-12-18T16:45:07;31.10;;;12.70;;
19869;SDS011;10097;50.862;4.696;2022-12-18T16:47:36;32.07;;;13.90;;
19869;SDS011;10097;50.862;4.696;2022-12-18T16:50:02;30.83;;;13.43;;
19869;SDS011;10097;50.862;4.696;2022-12-18T16:52:28;33.00;;;13.03;;
19869;SDS011;10097;50.862;4.696;2022-12-18T16:54:54;32.77;;;13.63;;
19869;SDS011;10097;50.862;4.696;2022-12-18T16:57:20;44.40;;;18.17;;